createdAt,value
2017-01-26T00:00:22.328Z,0
2017-01-26T00:01:22.296Z,0
2017-01-26T00:02:22.270Z,0
2017-01-26T00:03:22.247Z,0
2017-01-26T00:04:22.226Z,0
2017-01-26T00:05:22.199Z,0
2017-01-26T00:06:22.165Z,0
2017-01-26T00:07:22.142Z,0
2017-01-26T00:08:22.114Z,0
2017-01-26T00:09:22.486Z,0
2017-01-26T00:10:22.057Z,0
2017-01-26T00:11:22.034Z,0
2017-01-26T00:12:22.408Z,0
2017-01-26T00:13:21.976Z,0
2017-01-26T00:14:21.942Z,0
2017-01-26T00:15:21.920Z,0
2017-01-26T00:16:21.892Z,0
2017-01-26T00:17:21.872Z,0
2017-01-26T00:18:21.838Z,0
2017-01-26T00:19:21.816Z,0
2017-01-26T00:20:21.788Z,0
2017-01-26T00:21:21.762Z,0
2017-01-26T00:22:21.739Z,0
2017-01-26T00:23:21.700Z,0
2017-01-26T00:24:21.697Z,0
2017-01-26T00:25:21.653Z,0
2017-01-26T00:26:21.637Z,0
2017-01-26T00:27:22.006Z,0
2017-01-26T00:28:21.601Z,0
2017-01-26T00:29:21.547Z,0
2017-01-26T00:30:21.540Z,0
2017-01-26T00:31:21.889Z,0
2017-01-26T00:32:21.469Z,0
2017-01-26T00:33:21.440Z,0
2017-01-26T00:34:21.443Z,0
2017-01-26T00:35:21.380Z,0
2017-01-26T00:36:21.363Z,0
2017-01-26T00:37:21.333Z,0
2017-01-26T00:38:21.305Z,0
2017-01-26T00:39:21.284Z,0
2017-01-26T00:40:21.650Z,0
2017-01-26T00:41:21.221Z,0
2017-01-26T00:42:21.613Z,0
2017-01-26T00:43:21.170Z,0
2017-01-26T00:44:21.141Z,0
2017-01-26T00:45:21.115Z,0
2017-01-26T00:46:21.106Z,0
2017-01-26T00:47:21.487Z,0
2017-01-26T00:48:21.041Z,0
2017-01-26T00:49:21.014Z,0
2017-01-26T00:50:20.980Z,0
2017-01-26T00:51:20.962Z,0
2017-01-26T00:52:20.922Z,0
2017-01-26T00:53:20.926Z,0
2017-01-26T00:54:20.877Z,0
2017-01-26T00:55:20.844Z,0
2017-01-26T00:56:20.815Z,0
2017-01-26T00:57:20.790Z,0
2017-01-26T00:58:20.763Z,0
2017-01-26T00:59:20.742Z,0
2017-01-26T01:00:20.709Z,0
2017-01-26T01:01:20.700Z,0
2017-01-26T01:02:20.656Z,0
2017-01-26T01:03:20.631Z,0
2017-01-26T01:04:20.600Z,0
2017-01-26T01:05:20.572Z,0
2017-01-26T01:06:20.550Z,0
2017-01-26T01:07:20.518Z,0
2017-01-26T01:08:20.522Z,0
2017-01-26T01:09:20.469Z,0
2017-01-26T01:10:20.838Z,0
2017-01-26T01:11:20.416Z,0
2017-01-26T01:12:20.392Z,0
2017-01-26T01:13:20.365Z,0
2017-01-26T01:14:20.335Z,0
2017-01-26T01:15:20.311Z,0
2017-01-26T01:16:20.279Z,0
2017-01-26T01:17:20.264Z,0
2017-01-26T01:18:20.222Z,0
2017-01-26T01:19:20.197Z,0
2017-01-26T01:20:20.174Z,0
2017-01-26T01:21:20.152Z,0
2017-01-26T01:22:20.116Z,0
2017-01-26T01:23:20.093Z,0
2017-01-26T01:24:20.087Z,0
2017-01-26T01:25:20.039Z,0
2017-01-26T01:26:20.021Z,0
2017-01-26T01:27:19.980Z,0
2017-01-26T01:28:19.956Z,0
2017-01-26T01:29:19.934Z,0
2017-01-26T01:30:19.904Z,0
2017-01-26T01:31:19.871Z,0
2017-01-26T01:32:19.848Z,0
2017-01-26T01:33:19.849Z,0
2017-01-26T01:34:19.791Z,0
2017-01-26T01:35:19.763Z,0
2017-01-26T01:36:20.152Z,0
2017-01-26T01:37:19.709Z,0
2017-01-26T01:38:19.694Z,0
2017-01-26T01:39:19.662Z,0
2017-01-26T01:40:19.638Z,0
2017-01-26T01:41:19.607Z,0
2017-01-26T01:42:20.367Z,0
2017-01-26T01:43:19.546Z,0
2017-01-26T01:44:19.531Z,0
2017-01-26T01:45:19.496Z,0
2017-01-26T01:46:19.466Z,0
2017-01-26T01:47:19.443Z,0
2017-01-26T01:48:19.436Z,0
2017-01-26T01:49:19.387Z,0
2017-01-26T01:50:19.372Z,0
2017-01-26T01:51:19.333Z,0
2017-01-26T01:52:19.314Z,0
2017-01-26T01:53:19.285Z,0
2017-01-26T01:54:19.251Z,0
2017-01-26T01:55:19.228Z,0
2017-01-26T01:56:19.226Z,0
2017-01-26T01:57:19.172Z,0
2017-01-26T01:58:19.349Z,0
2017-01-26T01:59:19.122Z,0
2017-01-26T02:00:19.096Z,0
2017-01-26T02:01:19.063Z,0
2017-01-26T02:02:19.036Z,0
2017-01-26T02:03:19.409Z,0
2017-01-26T02:04:18.983Z,0
2017-01-26T02:05:18.953Z,0
2017-01-26T02:06:19.332Z,0
2017-01-26T02:07:18.901Z,0
2017-01-26T02:08:18.873Z,0
2017-01-26T02:09:18.848Z,0
2017-01-26T02:10:18.815Z,0
2017-01-26T02:11:18.782Z,0
2017-01-26T02:12:19.171Z,0
2017-01-26T02:13:18.734Z,0
2017-01-26T02:14:18.706Z,0
2017-01-26T02:15:19.078Z,0
2017-01-26T02:16:18.656Z,0
2017-01-26T02:17:18.623Z,0
2017-01-26T02:18:18.596Z,0
2017-01-26T02:19:18.570Z,0
2017-01-26T02:20:18.540Z,0
2017-01-26T02:21:18.516Z,0
2017-01-26T02:22:18.486Z,0
2017-01-26T02:23:18.461Z,0
2017-01-26T02:24:18.432Z,0
2017-01-26T02:25:18.413Z,0
2017-01-26T02:26:18.380Z,0
2017-01-26T02:27:18.350Z,0
2017-01-26T02:28:18.330Z,0
2017-01-26T02:29:18.303Z,0
2017-01-26T02:30:18.275Z,0
2017-01-26T02:31:18.257Z,0
2017-01-26T02:32:18.223Z,0
2017-01-26T02:33:18.197Z,0
2017-01-26T02:34:18.165Z,0
2017-01-26T02:35:18.147Z,0
2017-01-26T02:36:18.114Z,0
2017-01-26T02:37:18.082Z,0
2017-01-26T02:38:18.057Z,0
2017-01-26T02:39:18.025Z,0
2017-01-26T02:40:18.003Z,0
2017-01-26T02:41:17.973Z,0
2017-01-26T02:42:18.341Z,0
2017-01-26T02:43:17.922Z,0
2017-01-26T02:44:17.892Z,0
2017-01-26T02:45:18.271Z,0
2017-01-26T02:46:17.831Z,0
2017-01-26T02:47:17.820Z,0
2017-01-26T02:48:17.777Z,0
2017-01-26T02:49:17.765Z,0
2017-01-26T02:50:17.740Z,0
2017-01-26T02:51:17.732Z,0
2017-01-26T02:52:17.677Z,0
2017-01-26T02:53:17.645Z,0
2017-01-26T02:54:17.619Z,0
2017-01-26T02:55:17.589Z,0
2017-01-26T02:56:17.563Z,0
2017-01-26T02:57:17.535Z,0
2017-01-26T02:58:17.523Z,0
2017-01-26T02:59:17.478Z,0
2017-01-26T03:00:17.456Z,0
2017-01-26T03:01:17.424Z,0
2017-01-26T03:02:17.798Z,0
2017-01-26T03:03:17.374Z,0
2017-01-26T03:04:17.749Z,0
2017-01-26T03:05:17.317Z,0
2017-01-26T03:06:17.688Z,0
2017-01-26T03:07:17.261Z,0
2017-01-26T03:08:17.240Z,0
2017-01-26T03:09:17.222Z,0
2017-01-26T03:10:17.215Z,0
2017-01-26T03:11:17.159Z,0
2017-01-26T03:12:17.135Z,0
2017-01-26T03:13:17.103Z,0
2017-01-26T03:14:17.071Z,0
2017-01-26T03:15:17.042Z,0
2017-01-26T03:16:17.024Z,0
2017-01-26T03:17:16.988Z,0
2017-01-26T03:18:16.962Z,0
2017-01-26T03:19:16.935Z,0
2017-01-26T03:20:16.906Z,0
2017-01-26T03:21:16.881Z,0
2017-01-26T03:22:16.855Z,0
2017-01-26T03:23:16.824Z,0
2017-01-26T03:24:16.796Z,0
2017-01-26T03:25:16.767Z,0
2017-01-26T03:26:16.755Z,0
2017-01-26T03:27:16.720Z,0
2017-01-26T03:28:16.687Z,0
2017-01-26T03:29:16.660Z,0
2017-01-26T03:30:16.635Z,0
2017-01-26T03:31:16.604Z,0
2017-01-26T03:32:16.578Z,0
2017-01-26T03:33:16.546Z,0
2017-01-26T03:34:16.530Z,0
2017-01-26T03:35:16.499Z,0
2017-01-26T03:36:16.494Z,0
2017-01-26T03:37:16.432Z,0
2017-01-26T03:38:16.454Z,0
2017-01-26T03:39:16.407Z,0
2017-01-26T03:40:16.359Z,0
2017-01-26T03:41:16.330Z,0
2017-01-26T03:42:16.306Z,0
2017-01-26T03:43:16.288Z,0
2017-01-26T03:44:16.247Z,0
2017-01-26T03:45:16.225Z,0
2017-01-26T03:46:16.195Z,0
2017-01-26T03:47:16.177Z,0
2017-01-26T03:48:16.141Z,0
2017-01-26T03:49:16.118Z,0
2017-01-26T03:50:16.479Z,0
2017-01-26T03:51:16.064Z,0
2017-01-26T03:52:16.030Z,0
2017-01-26T03:53:16.001Z,0
2017-01-26T03:54:15.976Z,0
2017-01-26T03:55:15.941Z,0
2017-01-26T03:56:15.921Z,0
2017-01-26T03:57:15.888Z,0
2017-01-26T03:58:16.070Z,0
2017-01-26T03:59:15.835Z,0
2017-01-26T04:00:15.822Z,0
2017-01-26T04:01:15.785Z,0
2017-01-26T04:02:15.757Z,0
2017-01-26T04:03:15.735Z,0
2017-01-26T04:04:15.698Z,0
2017-01-26T04:05:15.676Z,0
2017-01-26T04:06:15.647Z,0
2017-01-26T04:07:16.034Z,0
2017-01-26T04:08:15.608Z,0
2017-01-26T04:09:15.566Z,0
2017-01-26T04:10:15.536Z,0
2017-01-26T04:11:15.510Z,0
2017-01-26T04:12:15.487Z,0
2017-01-26T04:13:15.450Z,0
2017-01-26T04:14:15.428Z,0
2017-01-26T04:15:15.403Z,0
2017-01-26T04:16:15.376Z,0
2017-01-26T04:17:15.749Z,0
2017-01-26T04:18:15.719Z,0
2017-01-26T04:19:15.292Z,0
2017-01-26T04:20:15.297Z,0
2017-01-26T04:21:15.271Z,0
2017-01-26T04:22:15.250Z,0
2017-01-26T04:23:15.171Z,0
2017-01-26T04:24:15.158Z,0
2017-01-26T04:25:15.523Z,0
2017-01-26T04:26:15.103Z,0
2017-01-26T04:27:15.075Z,0
2017-01-26T04:28:15.040Z,0
2017-01-26T04:29:15.015Z,0
2017-01-26T04:30:14.985Z,0
2017-01-26T04:31:14.959Z,0
2017-01-26T04:32:14.933Z,0
2017-01-26T04:33:14.905Z,0
2017-01-26T04:34:14.880Z,0
2017-01-26T04:35:14.849Z,0
2017-01-26T04:36:14.850Z,0
2017-01-26T04:37:15.214Z,0
2017-01-26T04:38:14.777Z,0
2017-01-26T04:39:14.749Z,0
2017-01-26T04:40:14.740Z,0
2017-01-26T04:41:14.698Z,0
2017-01-26T04:42:14.667Z,0
2017-01-26T04:43:14.632Z,0
2017-01-26T04:44:14.615Z,0
2017-01-26T04:45:14.576Z,0
2017-01-26T04:46:14.588Z,0
2017-01-26T04:47:14.525Z,0
2017-01-26T04:48:14.494Z,0
2017-01-26T04:49:14.466Z,0
2017-01-26T04:50:14.437Z,0
2017-01-26T04:51:14.414Z,0
2017-01-26T04:52:14.391Z,0
2017-01-26T04:53:14.359Z,0
2017-01-26T04:54:14.321Z,0
2017-01-26T04:55:14.300Z,0
2017-01-26T04:56:14.309Z,0
2017-01-26T04:57:14.253Z,0
2017-01-26T04:58:14.216Z,0
2017-01-26T04:59:14.192Z,0
2017-01-26T05:00:14.160Z,0
2017-01-26T05:01:14.138Z,0
2017-01-26T05:02:14.107Z,0
2017-01-26T05:03:14.080Z,0
2017-01-26T05:04:14.056Z,0
2017-01-26T05:05:14.047Z,0
2017-01-26T05:06:13.989Z,0
2017-01-26T05:07:13.967Z,0
2017-01-26T05:08:13.937Z,0
2017-01-26T05:09:13.917Z,0
2017-01-26T05:10:13.889Z,0
2017-01-26T05:11:13.879Z,0
2017-01-26T05:12:13.823Z,0
2017-01-26T05:13:13.800Z,0
2017-01-26T05:14:13.773Z,0
2017-01-26T05:15:13.746Z,0
2017-01-26T05:16:14.136Z,0
2017-01-26T05:17:13.691Z,0
2017-01-26T05:18:13.666Z,0
2017-01-26T05:19:13.638Z,0
2017-01-26T05:20:13.616Z,0
2017-01-26T05:21:13.582Z,0
2017-01-26T05:22:13.549Z,0
2017-01-26T05:23:13.523Z,0
2017-01-26T05:24:13.503Z,0
2017-01-26T05:25:13.865Z,0
2017-01-26T05:26:13.448Z,0
2017-01-26T05:27:13.415Z,0
2017-01-26T05:28:13.385Z,0
2017-01-26T05:29:13.361Z,0
2017-01-26T05:30:13.327Z,0
2017-01-26T05:31:13.303Z,0
2017-01-26T05:32:13.275Z,0
2017-01-26T05:33:13.255Z,0
2017-01-26T05:34:13.232Z,0
2017-01-26T05:35:13.206Z,0
2017-01-26T05:36:13.173Z,0
2017-01-26T05:37:13.143Z,0
2017-01-26T05:38:13.114Z,0
2017-01-26T05:39:13.088Z,0
2017-01-26T05:40:13.065Z,0
2017-01-26T05:41:13.032Z,0
2017-01-26T05:42:13.027Z,0
2017-01-26T05:43:12.976Z,0
2017-01-26T05:44:12.971Z,0
2017-01-26T05:45:12.919Z,0
2017-01-26T05:46:13.303Z,0
2017-01-26T05:47:12.880Z,0
2017-01-26T05:48:12.854Z,0
2017-01-26T05:49:13.230Z,0
2017-01-26T05:50:12.780Z,0
2017-01-26T05:51:12.761Z,0
2017-01-26T05:52:12.744Z,0
2017-01-26T05:53:12.700Z,0
2017-01-26T05:54:12.670Z,0
2017-01-26T05:55:13.052Z,0
2017-01-26T05:56:12.619Z,0
2017-01-26T05:57:12.592Z,0
2017-01-26T05:58:12.959Z,0
2017-01-26T05:59:12.536Z,0
2017-01-26T06:00:12.503Z,0
2017-01-26T06:01:12.487Z,0
2017-01-26T06:02:12.445Z,0
2017-01-26T06:03:12.422Z,0
2017-01-26T06:04:12.392Z,0
2017-01-26T06:05:12.391Z,0
2017-01-26T06:06:12.348Z,0
2017-01-26T06:07:12.321Z,0
2017-01-26T06:08:12.280Z,0
2017-01-26T06:09:12.249Z,0
2017-01-26T06:10:12.228Z,0
2017-01-26T06:11:12.196Z,0
2017-01-26T06:12:12.172Z,0
2017-01-26T06:13:12.946Z,0
2017-01-26T06:14:12.132Z,0
2017-01-26T06:15:12.083Z,0
2017-01-26T06:16:12.073Z,0
2017-01-26T06:17:12.038Z,0
2017-01-26T06:18:12.007Z,0
2017-01-26T06:19:11.973Z,0
2017-01-26T06:20:12.055Z,0
2017-01-26T06:21:12.338Z,0
2017-01-26T06:22:11.903Z,0
2017-01-26T06:23:11.875Z,0
2017-01-26T06:24:11.838Z,0
2017-01-26T06:25:11.816Z,0
2017-01-26T06:26:11.786Z,0
2017-01-26T06:27:11.751Z,0
2017-01-26T06:28:11.732Z,0
2017-01-26T06:29:11.710Z,0
2017-01-26T06:30:11.673Z,0
2017-01-26T06:31:11.639Z,0
2017-01-26T06:32:11.629Z,0
2017-01-26T06:33:11.588Z,0
2017-01-26T06:34:11.568Z,0
2017-01-26T06:35:11.539Z,0
2017-01-26T06:36:11.502Z,0
2017-01-26T06:37:11.475Z,0
2017-01-26T06:38:11.448Z,0
2017-01-26T06:39:11.434Z,0
2017-01-26T06:40:11.795Z,0
2017-01-26T06:41:11.367Z,0
2017-01-26T06:42:11.339Z,0
2017-01-26T06:43:11.706Z,0
2017-01-26T06:44:11.285Z,0
2017-01-26T06:45:11.256Z,0
2017-01-26T06:46:11.232Z,0
2017-01-26T06:47:11.598Z,0
2017-01-26T06:48:11.179Z,0
2017-01-26T06:49:11.143Z,0
2017-01-26T06:50:11.514Z,0
2017-01-26T06:51:11.096Z,0
2017-01-26T06:52:11.062Z,0
2017-01-26T06:53:11.031Z,0
2017-01-26T06:54:11.005Z,0
2017-01-26T06:55:10.976Z,0
2017-01-26T06:56:10.963Z,0
2017-01-26T06:57:10.932Z,0
2017-01-26T06:58:10.932Z,0
2017-01-26T06:59:10.871Z,0
2017-01-26T07:00:11.268Z,0
2017-01-26T07:01:10.836Z,0
2017-01-26T07:02:10.811Z,0
2017-01-26T07:03:10.767Z,0
2017-01-26T07:04:10.752Z,0
2017-01-26T07:05:10.708Z,0
2017-01-26T07:06:10.683Z,0
2017-01-26T07:07:10.647Z,0
2017-01-26T07:08:10.633Z,0
2017-01-26T07:09:10.592Z,0
2017-01-26T07:10:10.591Z,0
2017-01-26T07:11:10.536Z,0
2017-01-26T07:12:10.912Z,0
2017-01-26T07:13:10.488Z,0
2017-01-26T07:14:10.452Z,5
2017-01-26T07:15:10.442Z,5
2017-01-26T07:16:10.850Z,5
2017-01-26T07:17:10.378Z,5
2017-01-26T07:18:10.354Z,5
2017-01-26T07:19:11.114Z,5
2017-01-26T07:20:10.292Z,5
2017-01-26T07:21:10.271Z,5
2017-01-26T07:22:10.267Z,5
2017-01-26T07:23:10.225Z,5
2017-01-26T07:24:10.182Z,10
2017-01-26T07:25:10.147Z,10
2017-01-26T07:26:10.125Z,10
2017-01-26T07:27:10.099Z,10
2017-01-26T07:28:10.067Z,10
2017-01-26T07:29:10.039Z,10
2017-01-26T07:30:10.020Z,10
2017-01-26T07:31:09.994Z,15
2017-01-26T07:32:09.963Z,15
2017-01-26T07:33:09.952Z,15
2017-01-26T07:34:09.904Z,15
2017-01-26T07:35:10.309Z,15
2017-01-26T07:36:09.847Z,15
2017-01-26T07:37:09.818Z,20
2017-01-26T07:38:09.788Z,20
2017-01-26T07:39:09.767Z,20
2017-01-26T07:40:09.734Z,20
2017-01-26T07:41:09.706Z,20
2017-01-26T07:42:09.675Z,20
2017-01-26T07:43:09.666Z,25
2017-01-26T07:44:09.637Z,25
2017-01-26T07:45:09.604Z,25
2017-01-26T07:46:09.596Z,25
2017-01-26T07:47:09.574Z,25
2017-01-26T07:48:09.513Z,25
2017-01-26T07:49:09.493Z,30
2017-01-26T07:50:09.462Z,30
2017-01-26T07:51:09.432Z,30
2017-01-26T07:52:09.431Z,30
2017-01-26T07:53:09.381Z,30
2017-01-26T07:54:09.359Z,35
2017-01-26T07:55:09.325Z,35
2017-01-26T07:56:09.300Z,35
2017-01-26T07:57:09.672Z,35
2017-01-26T07:58:09.241Z,35
2017-01-26T07:59:09.210Z,35
2017-01-26T08:00:09.197Z,40
2017-01-26T08:01:09.159Z,40
2017-01-26T08:02:09.135Z,40
2017-01-26T08:03:09.120Z,40
2017-01-26T08:04:09.080Z,40
2017-01-26T08:05:09.053Z,40
2017-01-26T08:06:09.023Z,45
2017-01-26T08:07:08.992Z,45
2017-01-26T08:08:09.022Z,45
2017-01-26T08:09:08.942Z,45
2017-01-26T08:10:08.915Z,45
2017-01-26T08:11:08.885Z,45
2017-01-26T08:12:08.855Z,50
2017-01-26T08:13:08.894Z,50
2017-01-26T08:14:08.801Z,50
2017-01-26T08:15:08.831Z,50
2017-01-26T08:16:08.756Z,50
2017-01-26T08:17:08.728Z,50
2017-01-26T08:18:08.697Z,55
2017-01-26T08:19:09.076Z,55
2017-01-26T08:20:08.696Z,55
2017-01-26T08:21:08.688Z,55
2017-01-26T08:22:08.689Z,55
2017-01-26T08:23:08.562Z,55
2017-01-26T08:24:08.588Z,55
2017-01-26T08:25:08.516Z,60
2017-01-26T08:26:08.481Z,60
2017-01-26T08:27:08.448Z,60
2017-01-26T08:28:08.824Z,60
2017-01-26T08:29:08.399Z,60
2017-01-26T08:30:08.371Z,60
2017-01-26T08:31:08.344Z,60
2017-01-26T08:32:08.324Z,65
2017-01-26T08:33:08.351Z,65
2017-01-26T08:34:08.269Z,65
2017-01-26T08:35:08.635Z,65
2017-01-26T08:36:08.209Z,65
2017-01-26T08:37:08.179Z,70
2017-01-26T08:38:08.175Z,70
2017-01-26T08:39:08.135Z,70
2017-01-26T08:40:08.104Z,70
2017-01-26T08:41:08.078Z,70
2017-01-26T08:42:08.052Z,70
2017-01-26T08:43:08.023Z,70
2017-01-26T08:44:08.442Z,75
2017-01-26T08:45:07.972Z,75
2017-01-26T08:46:07.944Z,75
2017-01-26T08:47:07.959Z,75
2017-01-26T08:48:07.935Z,75
2017-01-26T08:49:07.876Z,75
2017-01-26T08:50:07.867Z,80
2017-01-26T08:51:08.204Z,80
2017-01-26T08:52:07.783Z,80
2017-01-26T08:53:08.161Z,80
2017-01-26T08:54:07.731Z,80
2017-01-26T08:55:07.713Z,80
2017-01-26T08:56:07.678Z,80
2017-01-26T08:57:07.649Z,80
2017-01-26T08:58:07.673Z,85
2017-01-26T08:59:07.606Z,85
2017-01-26T09:00:07.590Z,85
2017-01-26T09:01:07.553Z,85
2017-01-26T09:02:07.529Z,85
2017-01-26T09:03:07.497Z,90
2017-01-26T09:04:07.474Z,90
2017-01-26T09:05:07.890Z,90
2017-01-26T09:06:07.419Z,90
2017-01-26T09:07:07.393Z,90
2017-01-26T09:08:07.371Z,90
2017-01-26T09:09:07.743Z,90
2017-01-26T09:10:07.326Z,95
2017-01-26T09:11:07.316Z,95
2017-01-26T09:12:07.287Z,95
2017-01-26T09:13:07.639Z,95
2017-01-26T09:14:07.609Z,95
2017-01-26T09:15:07.189Z,95
2017-01-26T09:16:07.214Z,95
2017-01-26T09:17:07.138Z,95
2017-01-26T09:18:07.114Z,100
2017-01-26T09:19:07.143Z,100
2017-01-26T09:20:07.084Z,100
2017-01-26T09:21:07.428Z,100
2017-01-26T09:22:07.014Z,100
2017-01-26T09:23:06.993Z,100
2017-01-26T09:24:06.955Z,100
2017-01-26T09:25:06.935Z,105
2017-01-26T09:26:07.310Z,105
2017-01-26T09:27:07.291Z,105
2017-01-26T09:28:06.862Z,105
2017-01-26T09:29:06.891Z,105
2017-01-26T09:30:06.819Z,110
2017-01-26T09:31:06.791Z,110
2017-01-26T09:32:06.777Z,110
2017-01-26T09:33:06.736Z,110
2017-01-26T09:34:06.710Z,110
2017-01-26T09:35:06.686Z,115
2017-01-26T09:36:06.667Z,115
2017-01-26T09:37:06.638Z,115
2017-01-26T09:38:06.613Z,115
2017-01-26T09:39:06.980Z,115
2017-01-26T09:40:06.590Z,115
2017-01-26T09:41:06.531Z,115
2017-01-26T09:42:06.524Z,120
2017-01-26T09:43:06.590Z,125
2017-01-26T09:44:06.459Z,130
2017-01-26T09:45:06.434Z,175
2017-01-26T09:46:06.429Z,245
2017-01-26T09:47:06.385Z,265
2017-01-26T09:48:06.438Z,195
2017-01-26T09:49:06.338Z,135
2017-01-26T09:50:06.314Z,175
2017-01-26T09:51:06.296Z,255
2017-01-26T09:52:06.681Z,355
2017-01-26T09:53:06.252Z,385
2017-01-26T09:54:06.625Z,395
2017-01-26T09:55:06.603Z,405
2017-01-26T09:56:06.178Z,280
2017-01-26T09:57:06.158Z,150
2017-01-26T09:58:06.132Z,140
2017-01-26T09:59:06.317Z,140
2017-01-26T10:00:06.484Z,140
2017-01-26T10:01:06.063Z,140
2017-01-26T10:02:06.053Z,140
2017-01-26T10:03:06.417Z,175
2017-01-26T10:04:06.006Z,270
2017-01-26T10:05:06.007Z,380
2017-01-26T10:06:05.961Z,400
2017-01-26T10:07:05.932Z,320
2017-01-26T10:08:05.917Z,310
2017-01-26T10:09:06.291Z,325
2017-01-26T10:10:05.880Z,250
2017-01-26T10:11:05.866Z,205
2017-01-26T10:12:05.832Z,260
2017-01-26T10:13:06.225Z,275
2017-01-26T10:14:05.795Z,245
2017-01-26T10:15:05.773Z,240
2017-01-26T10:16:05.783Z,265
2017-01-26T10:17:05.745Z,290
2017-01-26T10:18:05.721Z,315
2017-01-26T10:19:05.702Z,280
2017-01-26T10:20:05.682Z,235
2017-01-26T10:21:06.087Z,170
2017-01-26T10:22:05.642Z,160
2017-01-26T10:23:06.028Z,165
2017-01-26T10:24:05.620Z,165
2017-01-26T10:25:05.604Z,175
2017-01-26T10:26:05.575Z,170
2017-01-26T10:27:05.554Z,210
2017-01-26T10:28:05.530Z,235
2017-01-26T10:29:05.911Z,285
2017-01-26T10:30:05.500Z,390
2017-01-26T10:31:05.876Z,365
2017-01-26T10:32:06.252Z,365
2017-01-26T10:33:05.449Z,460
2017-01-26T10:34:05.417Z,530
2017-01-26T10:35:05.403Z,525
2017-01-26T10:36:05.384Z,520
2017-01-26T10:37:05.365Z,480
2017-01-26T10:38:05.798Z,475
2017-01-26T10:39:05.336Z,490
2017-01-26T10:40:05.313Z,515
2017-01-26T10:41:05.358Z,550
2017-01-26T10:42:05.277Z,565
2017-01-26T10:43:05.277Z,560
2017-01-26T10:44:05.253Z,540
2017-01-26T10:45:05.235Z,555
2017-01-26T10:46:05.228Z,530
2017-01-26T10:47:05.199Z,505
2017-01-26T10:48:05.186Z,520
2017-01-26T10:49:05.172Z,520
2017-01-26T10:50:05.198Z,550
2017-01-26T10:51:05.150Z,485
2017-01-26T10:52:05.144Z,460
2017-01-26T10:53:05.522Z,445
2017-01-26T10:54:05.102Z,475
2017-01-26T10:55:05.093Z,460
2017-01-26T10:56:05.478Z,390
2017-01-26T10:57:05.057Z,330
2017-01-26T10:58:05.055Z,355
2017-01-26T10:59:05.035Z,365
2017-01-26T11:00:05.017Z,390
2017-01-26T11:01:05.013Z,475
2017-01-26T11:02:04.993Z,505
2017-01-26T11:03:05.005Z,475
2017-01-26T11:04:05.026Z,475
2017-01-26T11:05:04.964Z,470
2017-01-26T11:06:04.958Z,415
2017-01-26T11:07:04.931Z,280
2017-01-26T11:08:04.917Z,290
2017-01-26T11:09:04.904Z,310
2017-01-26T11:10:04.902Z,285
2017-01-26T11:11:05.669Z,290
2017-01-26T11:12:04.881Z,280
2017-01-26T11:13:04.878Z,280
2017-01-26T11:14:04.870Z,395
2017-01-26T11:15:04.824Z,400
2017-01-26T11:16:04.817Z,415
2017-01-26T11:17:04.800Z,500
2017-01-26T11:18:04.896Z,605
2017-01-26T11:19:05.168Z,655
2017-01-26T11:20:04.768Z,625
2017-01-26T11:21:04.743Z,525
2017-01-26T11:22:04.732Z,455
2017-01-26T11:23:04.724Z,425
2017-01-26T11:24:04.707Z,370
2017-01-26T11:25:04.702Z,425
2017-01-26T11:26:05.089Z,490
2017-01-26T11:27:04.679Z,495
2017-01-26T11:28:04.656Z,455
2017-01-26T11:29:04.652Z,440
2017-01-26T11:30:05.028Z,425
2017-01-26T11:31:05.052Z,415
2017-01-26T11:32:04.609Z,425
2017-01-26T11:33:04.597Z,455
2017-01-26T11:34:04.583Z,435
2017-01-26T11:35:04.975Z,435
2017-01-26T11:36:04.574Z,415
2017-01-26T11:37:05.344Z,395
2017-01-26T11:38:54.668Z,425
2017-01-26T11:39:32.479Z,470
2017-01-26T11:40:32.457Z,545
2017-01-26T11:41:32.450Z,545
2017-01-26T11:42:32.436Z,550
2017-01-26T11:43:32.524Z,555
2017-01-26T11:44:32.405Z,495
2017-01-26T11:45:32.402Z,440
2017-01-26T11:46:32.388Z,300
2017-01-26T11:47:32.373Z,245
2017-01-26T11:48:32.381Z,190
2017-01-26T11:49:32.350Z,180
2017-01-26T11:50:32.347Z,175
2017-01-26T11:51:32.329Z,175
2017-01-26T11:52:32.322Z,170
2017-01-26T11:53:32.309Z,170
2017-01-26T11:54:32.293Z,170
2017-01-26T11:55:32.335Z,165
2017-01-26T11:56:32.257Z,165
2017-01-26T11:57:32.258Z,170
2017-01-26T11:58:32.643Z,175
2017-01-26T11:59:32.218Z,175
2017-01-26T12:00:32.210Z,175
2017-01-26T12:01:32.591Z,175
2017-01-26T12:02:32.568Z,170
2017-01-26T12:03:32.161Z,170
2017-01-26T12:04:32.138Z,180
2017-01-26T12:05:32.133Z,215
2017-01-26T12:06:32.524Z,225
2017-01-26T12:07:32.098Z,205
2017-01-26T12:08:32.082Z,195
2017-01-26T12:09:32.072Z,205
2017-01-26T12:10:32.052Z,225
2017-01-26T12:11:35.956Z,255
2017-01-26T12:12:32.029Z,260
2017-01-26T12:13:31.993Z,260
2017-01-26T12:14:31.971Z,370
2017-01-26T12:15:31.963Z,550
2017-01-26T12:16:31.946Z,640
2017-01-26T12:17:31.926Z,640
2017-01-26T12:18:31.912Z,615
2017-01-26T12:19:31.895Z,605
2017-01-26T12:20:32.280Z,610
2017-01-26T12:21:31.869Z,610
2017-01-26T12:22:31.854Z,605
2017-01-26T12:23:31.889Z,610
2017-01-26T12:24:31.834Z,615
2017-01-26T12:25:31.819Z,605
2017-01-26T12:26:32.208Z,600
2017-01-26T12:27:31.793Z,600
2017-01-26T12:28:31.767Z,600
2017-01-26T12:29:31.793Z,585
2017-01-26T12:30:31.755Z,575
2017-01-26T12:31:31.738Z,575
2017-01-26T12:32:31.727Z,580
2017-01-26T12:33:31.721Z,580
2017-01-26T12:34:31.707Z,585
2017-01-26T12:35:31.703Z,585
2017-01-26T12:36:31.680Z,585
2017-01-26T12:37:31.674Z,585
2017-01-26T12:38:31.719Z,575
2017-01-26T12:39:31.660Z,575
2017-01-26T12:40:31.652Z,565
2017-01-26T12:41:31.650Z,570
2017-01-26T12:42:31.644Z,575
2017-01-26T12:43:31.693Z,575
2017-01-26T12:44:31.646Z,575
2017-01-26T12:45:31.617Z,585
2017-01-26T12:46:31.609Z,595
2017-01-26T12:47:31.623Z,600
2017-01-26T12:48:31.639Z,565
2017-01-26T12:49:31.580Z,560
2017-01-26T12:50:31.567Z,555
2017-01-26T12:51:31.561Z,555
2017-01-26T12:52:31.552Z,555
2017-01-26T12:53:31.552Z,565
2017-01-26T12:54:31.540Z,575
2017-01-26T12:55:31.538Z,570
2017-01-26T12:56:31.532Z,570
2017-01-26T12:57:31.599Z,550
2017-01-26T12:58:31.515Z,540
2017-01-26T12:59:31.900Z,535
2017-01-26T13:00:31.504Z,525
2017-01-26T13:01:31.494Z,535
2017-01-26T13:02:31.889Z,525
2017-01-26T13:03:31.532Z,520
2017-01-26T13:04:31.472Z,520
2017-01-26T13:05:31.466Z,510
2017-01-26T13:06:31.464Z,495
2017-01-26T13:07:31.464Z,490
2017-01-26T13:08:31.459Z,490
2017-01-26T13:09:31.440Z,500
2017-01-26T13:10:31.438Z,500
2017-01-26T13:11:31.434Z,500
2017-01-26T13:12:31.458Z,495
2017-01-26T13:13:31.416Z,480
2017-01-26T13:14:31.411Z,465
2017-01-26T13:15:31.408Z,465
2017-01-26T13:16:31.800Z,475
2017-01-26T13:17:31.393Z,470
2017-01-26T13:18:31.380Z,470
2017-01-26T13:19:31.383Z,475
2017-01-26T13:20:31.369Z,485
2017-01-26T13:21:31.370Z,470
2017-01-26T13:22:31.354Z,475
2017-01-26T13:23:31.362Z,470
2017-01-26T13:24:31.349Z,465
2017-01-26T13:25:31.343Z,465
2017-01-26T13:26:31.338Z,470
2017-01-26T13:27:32.917Z,470
2017-01-26T13:28:32.910Z,465
2017-01-26T13:29:32.942Z,455
2017-01-26T13:30:32.899Z,445
2017-01-26T13:31:32.503Z,435
2017-01-26T13:32:32.890Z,435
2017-01-26T13:33:32.885Z,420
2017-01-26T13:34:32.883Z,430
2017-01-26T13:35:32.875Z,425
2017-01-26T13:36:32.868Z,425
2017-01-26T13:37:32.469Z,430
2017-01-26T13:38:32.857Z,435
2017-01-26T13:39:32.455Z,425
2017-01-26T13:40:32.841Z,425
2017-01-26T13:41:32.834Z,410
2017-01-26T13:42:32.439Z,405
2017-01-26T13:43:32.818Z,400
2017-01-26T13:44:32.826Z,390
2017-01-26T13:45:32.804Z,390
2017-01-26T13:46:32.790Z,380
2017-01-26T13:47:32.794Z,375
2017-01-26T13:48:32.824Z,375
2017-01-26T13:49:32.776Z,375
2017-01-26T13:50:32.773Z,370
2017-01-26T13:51:32.769Z,365
2017-01-26T13:52:32.371Z,365
2017-01-26T13:53:32.767Z,365
2017-01-26T13:54:32.771Z,365
2017-01-26T13:55:32.747Z,370
2017-01-26T13:56:32.739Z,365
2017-01-26T13:57:32.732Z,360
2017-01-26T13:58:32.933Z,355
2017-01-26T13:59:32.740Z,350
2017-01-26T14:00:32.709Z,345
2017-01-26T14:01:32.701Z,340
2017-01-26T14:02:32.693Z,335
2017-01-26T14:03:32.749Z,315
2017-01-26T14:04:32.681Z,260
2017-01-26T14:05:32.670Z,190
2017-01-26T14:06:32.660Z,155
2017-01-26T14:07:32.655Z,140
2017-01-26T14:08:32.643Z,145
2017-01-26T14:09:32.641Z,150
2017-01-26T14:10:32.630Z,135
2017-01-26T14:11:32.629Z,125
2017-01-26T14:12:32.617Z,125
2017-01-26T14:13:32.620Z,125
2017-01-26T14:14:32.201Z,125
2017-01-26T14:15:32.580Z,120
2017-01-26T14:16:32.180Z,120
2017-01-26T14:17:32.563Z,120
2017-01-26T14:18:32.551Z,125
2017-01-26T14:19:32.544Z,125
2017-01-26T14:20:32.528Z,125